Time;durP1;ratioP1;P1;durP2;ratioP2;P2;SDS_P1;SDS_P2;PMS_P1;PMS_P2;Temp;Humidity;BMP_temperature;BMP_pressure;BME280_temperature;BME280_humidity;BME280_pressure;Samples;Min_cycle;Max_cycle;Signal;HPM_P1;HPM_P2
2021/03/07 00:01:12;;;;;;;8.48;5.10;;;1.70;61.30;;;;;;5015151;28;20026;-60
2021/03/07 00:03:38;;;;;;;9.20;5.35;;;1.60;61.30;;;;;;5015087;28;20030;-59
2021/03/07 00:06:04;;;;;;;6.78;5.03;;;1.60;61.20;;;;;;5014931;28;20030;-60
2021/03/07 00:08:37;;;;;;;9.48;5.20;;;1.60;61.20;;;;;;5015529;28;20032;-60
2021/03/07 00:11:03;;;;;;;6.40;4.10;;;1.60;61.00;;;;;;5028139;28;20041;-59
2021/03/07 00:13:29;;;;;;;7.68;5.18;;;1.60;60.90;;;;;;5034437;28;20025;-60
2021/03/07 00:15:55;;;;;;;7.38;5.18;;;1.60;60.90;;;;;;5034522;28;20033;-60
2021/03/07 00:18:20;;;;;;;7.03;4.70;;;1.60;61.10;;;;;;5034822;28;20017;-60
2021/03/07 00:20:46;;;;;;;6.85;5.05;;;1.50;60.90;;;;;;5034447;28;20022;-60
2021/03/07 00:23:12;;;;;;;7.10;4.93;;;1.50;61.10;;;;;;5034397;28;20036;-58
2021/03/07 00:25:38;;;;;;;7.00;4.70;;;1.40;61.00;;;;;;5034258;28;20045;-60
2021/03/07 00:28:04;;;;;;;9.93;5.85;;;1.30;61.30;;;;;;5034250;28;20021;-61
2021/03/07 00:30:29;;;;;;;8.55;5.18;;;1.30;61.50;;;;;;5034580;28;20029;-58
2021/03/07 00:32:55;;;;;;;8.80;6.05;;;1.20;61.40;;;;;;5018655;28;20030;-60
2021/03/07 00:35:21;;;;;;;9.93;5.57;;;1.20;61.60;;;;;;5014436;28;20432;-60
2021/03/07 00:37:46;;;;;;;8.85;5.63;;;1.20;61.90;;;;;;5014440;28;20049;-60
2021/03/07 00:40:13;;;;;;;8.18;5.13;;;1.20;61.80;;;;;;5017835;28;20088;-59
2021/03/07 00:42:46;;;;;;;7.85;5.55;;;1.20;61.70;;;;;;5034050;28;20037;-60
2021/03/07 00:45:14;;;;;;;8.18;5.53;;;1.20;61.90;;;;;;5034140;28;20087;-60
2021/03/07 00:47:40;;;;;;;8.20;5.03;;;1.20;61.80;;;;;;5034031;28;20075;-60
2021/03/07 00:50:12;;;;;;;9.80;5.85;;;1.20;61.60;;;;;;5033898;28;20073;-60
2021/03/07 00:52:38;;;;;;;8.52;5.40;;;1.30;61.50;;;;;;5033918;28;20055;-60
2021/03/07 00:55:05;;;;;;;7.45;5.25;;;1.30;61.50;;;;;;5033929;28;20033;-60
2021/03/07 00:57:31;;;;;;;9.57;5.18;;;1.30;61.50;;;;;;5033813;28;20031;-59
2021/03/07 00:59:57;;;;;;;10.18;5.80;;;1.20;61.40;;;;;;5033906;28;20025;-60
2021/03/07 01:02:24;;;;;;;9.45;5.60;;;1.20;61.40;;;;;;5030875;28;20025;-59
2021/03/07 01:04:50;;;;;;;8.50;5.03;;;1.20;61.40;;;;;;5033788;28;20017;-59
2021/03/07 01:07:16;;;;;;;7.38;5.15;;;1.20;61.50;;;;;;5033539;28;20029;-59
2021/03/07 01:09:41;;;;;;;6.85;5.05;;;1.20;61.40;;;;;;5029546;28;20030;-59
2021/03/07 01:12:07;;;;;;;7.18;5.13;;;1.20;61.40;;;;;;5013911;28;20054;-59
2021/03/07 01:14:33;;;;;;;7.93;5.55;;;1.10;61.60;;;;;;5014161;28;20087;-60
2021/03/07 01:16:59;;;;;;;9.30;5.00;;;1.10;61.60;;;;;;5032366;28;20075;-60
2021/03/07 01:19:30;;;;;;;6.45;4.70;;;1.10;61.70;;;;;;5033796;28;20377;-59
2021/03/07 01:21:56;;;;;;;;;;;1.10;61.50;;;;;;5033945;28;20021;-58
2021/03/07 01:24:22;;;;;;;6.68;4.30;;;1.00;61.50;;;;;;5033469;28;19931;-59
2021/03/07 01:26:47;;;;;;;8.48;4.97;;;1.00;61.40;;;;;;5033427;28;20029;-60
2021/03/07 01:29:13;;;;;;;7.40;5.20;;;1.00;61.40;;;;;;5032122;28;20041;-59
2021/03/07 01:31:39;;;;;;;6.68;4.75;;;0.90;61.50;;;;;;5026624;28;20105;-59
2021/03/07 01:34:05;;;;;;;9.43;4.85;;;0.90;61.60;;;;;;5013631;28;20039;-59
2021/03/07 01:36:30;;;;;;;7.85;4.75;;;0.90;61.80;;;;;;5013581;28;20108;-60
2021/03/07 01:38:56;;;;;;;6.43;5.15;;;0.80;61.90;;;;;;5017293;28;20386;-60
2021/03/07 01:41:25;;;;;;;7.28;5.03;;;0.80;61.90;;;;;;5035515;28;20080;-59
2021/03/07 01:43:51;;;;;;;7.82;5.40;;;0.80;62.20;;;;;;5037447;28;20072;-59
2021/03/07 01:46:17;;;;;;;10.98;5.47;;;0.80;62.10;;;;;;5037582;28;20053;-58
2021/03/07 01:48:43;;;;;;;9.18;5.32;;;0.70;62.30;;;;;;5037310;28;20509;-60
2021/03/07 01:51:09;;;;;;;7.40;4.97;;;0.70;62.30;;;;;;5037302;28;20036;-59
2021/03/07 01:53:35;;;;;;;7.20;5.20;;;0.60;62.30;;;;;;5037290;28;20100;-59
2021/03/07 01:56:04;;;;;;;8.52;5.88;;;0.60;62.40;;;;;;5037278;28;20053;-59
2021/03/07 01:58:32;;;;;;;8.85;5.35;;;0.50;62.60;;;;;;5037572;28;20068;-60
2021/03/07 02:00:59;;;;;;;7.93;5.20;;;0.50;62.70;;;;;;5036042;28;20048;-58
2021/03/07 02:03:26;;;;;;;11.48;5.90;;;0.50;62.60;;;;;;5017587;28;20496;-60
2021/03/07 02:05:52;;;;;;;7.95;5.78;;;0.50;62.80;;;;;;5034353;28;20041;-60
2021/03/07 02:08:19;;;;;;;7.15;5.35;;;0.50;62.80;;;;;;5035818;28;20485;-60
2021/03/07 02:10:52;;;;;;;9.88;6.20;;;0.40;62.60;;;;;;5024260;28;20505;-59
2021/03/07 02:13:42;;;;;;;7.65;5.55;;;0.40;62.80;;;;;;5017155;28;20026;-60
2021/03/07 02:16:12;;;;;;;8.07;5.60;;;0.40;62.80;;;;;;5017324;28;20428;-60
2021/03/07 02:18:39;;;;;;;8.38;5.80;;;0.40;63.00;;;;;;5016914;28;20512;-60
2021/03/07 02:21:31;;;;;;;8.73;5.18;;;0.40;63.10;;;;;;5028298;28;20428;-60
2021/03/07 02:24:06;;;;;;;8.50;5.70;;;0.40;63.00;;;;;;5036849;28;20025;-60
2021/03/07 02:26:53;;;;;;;8.75;5.75;;;0.40;62.90;;;;;;5036665;28;20053;-60
2021/03/07 02:29:21;;;;;;;9.15;6.47;;;0.30;62.90;;;;;;5036467;28;20044;-60
2021/03/07 02:32:11;;;;;;;9.68;5.47;;;0.30;63.00;;;;;;5036823;28;20408;-60
2021/03/07 02:34:45;;;;;;;8.18;4.88;;;0.30;63.10;;;;;;5036355;28;20032;-59
2021/03/07 02:37:14;;;;;;;7.80;5.10;;;0.30;63.10;;;;;;5036730;28;20035;-60
2021/03/07 02:39:42;;;;;;;8.00;5.78;;;0.30;63.10;;;;;;5036406;28;20025;-59
2021/03/07 02:42:12;;;;;;;7.53;4.88;;;0.30;62.90;;;;;;5036391;28;20021;-61
2021/03/07 02:44:43;;;;;;;8.73;5.95;;;0.20;62.90;;;;;;5036306;28;20477;-59
2021/03/07 02:47:12;;;;;;;8.55;5.63;;;0.20;63.10;;;;;;5036441;28;20026;-60
2021/03/07 02:49:38;;;;;;;7.63;5.40;;;0.10;63.20;;;;;;5035803;28;20451;-60
2021/03/07 02:52:05;;;;;;;6.70;5.05;;;0.10;63.20;;;;;;5017573;28;20478;-61
2021/03/07 02:54:34;;;;;;;7.63;5.22;;;0.10;63.20;;;;;;5016306;28;20026;-59
2021/03/07 02:57:01;;;;;;;6.38;5.25;;;0.10;63.20;;;;;;5016502;28;20101;-61
2021/03/07 02:59:28;;;;;;;8.82;5.38;;;0.10;63.30;;;;;;5016263;28;20532;-60
2021/03/07 03:02:01;;;;;;;7.65;5.40;;;0.20;63.40;;;;;;5016188;28;20034;-60
2021/03/07 03:04:28;;;;;;;5.75;4.63;;;0.10;63.10;;;;;;5021960;28;20536;-60
2021/03/07 03:06:54;;;;;;;6.57;4.68;;;0.20;63.20;;;;;;5036025;28;20022;-60
2021/03/07 03:09:22;;;;;;;6.72;4.82;;;0.20;63.20;;;;;;5032601;28;20037;-58
2021/03/07 03:11:53;;;;;;;8.52;5.07;;;0.20;63.10;;;;;;5016079;28;20068;-60
2021/03/07 03:14:20;;;;;;;7.87;5.53;;;0.10;63.00;;;;;;5016112;28;20026;-57
2021/03/07 03:16:51;;;;;;;7.57;4.88;;;0.10;62.90;;;;;;5015880;28;20433;-60
2021/03/07 03:19:20;;;;;;;6.40;4.68;;;0.10;63.00;;;;;;5031475;28;20462;-60
2021/03/07 03:21:46;;;;;;;7.50;4.93;;;0.00;63.00;;;;;;5035576;28;20080;-59
2021/03/07 03:24:12;;;;;;;7.30;5.07;;;0.00;63.10;;;;;;5035635;28;20021;-60
2021/03/07 03:26:38;;;;;;;6.47;4.97;;;0.00;63.10;;;;;;5035810;28;20388;-61
2021/03/07 03:29:06;;;;;;;7.65;4.80;;;-0.10;63.10;;;;;;5035539;28;20105;-60
2021/03/07 03:31:33;;;;;;;6.30;4.88;;;-0.10;63.10;;;;;;5035712;28;20033;-60
2021/03/07 03:34:01;;;;;;;9.82;5.70;;;-0.10;63.40;;;;;;5035375;28;20032;-60
2021/03/07 03:36:28;;;;;;;7.10;5.00;;;-0.10;63.30;;;;;;5034145;28;20458;-59
2021/03/07 03:38:56;;;;;;;7.13;5.03;;;-0.10;63.30;;;;;;5035295;28;20013;-60
2021/03/07 03:41:25;;;;;;;7.03;4.82;;;-0.10;63.50;;;;;;5019478;28;20029;-59
2021/03/07 03:43:54;;;;;;;7.55;5.32;;;-0.10;63.30;;;;;;5035276;28;20029;-58
2021/03/07 03:46:21;;;;;;;7.07;5.18;;;-0.20;63.30;;;;;;5035221;28;20022;-60
2021/03/07 03:48:55;;;;;;;6.78;4.82;;;-0.20;63.20;;;;;;5033950;28;20398;-61
2021/03/07 03:51:23;;;;;;;6.32;4.97;;;-0.20;64.20;;;;;;5035123;28;20025;-59
2021/03/07 03:53:51;;;;;;;7.60;4.88;;;-0.20;63.40;;;;;;5035144;28;20073;-59
2021/03/07 03:56:20;;;;;;;8.27;6.00;;;-0.20;63.50;;;;;;5034915;28;20028;-60
2021/03/07 03:58:48;;;;;;;8.13;5.18;;;-0.20;63.50;;;;;;5035177;28;20021;-60
2021/03/07 04:01:17;;;;;;;7.53;5.60;;;-0.20;63.50;;;;;;5034190;28;20354;-59
2021/03/07 04:03:47;;;;;;;9.93;5.40;;;-0.20;63.60;;;;;;5034817;28;20060;-60
2021/03/07 04:06:13;;;;;;;8.60;5.50;;;-0.20;63.70;;;;;;5015222;28;20022;-60
2021/03/07 04:08:41;;;;;;;7.75;5.45;;;-0.10;63.90;;;;;;5014958;28;20030;-60
2021/03/07 04:11:07;;;;;;;7.70;5.13;;;-0.10;63.60;;;;;;5015276;28;20033;-59
2021/03/07 04:13:33;;;;;;;11.45;6.72;;;-0.10;63.50;;;;;;5014975;28;20018;-60
2021/03/07 04:15:59;;;;;;;9.07;5.78;;;-0.10;63.50;;;;;;5014825;28;20025;-60
2021/03/07 04:18:27;;;;;;;10.77;7.25;;;-0.10;63.70;;;;;;5025321;28;20103;-60
2021/03/07 04:20:53;;;;;;;8.13;6.07;;;0.00;63.80;;;;;;5034675;28;20033;-60
2021/03/07 04:23:20;;;;;;;13.50;7.43;;;0.10;63.60;;;;;;5034493;28;20033;-59
2021/03/07 04:25:46;;;;;;;9.07;6.63;;;0.10;63.60;;;;;;5034393;28;20029;-60
2021/03/07 04:28:12;;;;;;;8.90;6.20;;;0.10;63.30;;;;;;5033089;28;20029;-60
2021/03/07 04:30:38;;;;;;;14.18;7.65;;;0.20;63.40;;;;;;5034603;28;20151;-58
2021/03/07 04:33:06;;;;;;;12.50;8.25;;;0.20;63.50;;;;;;5034314;28;20025;-60
2021/03/07 04:35:32;;;;;;;9.80;7.13;;;0.20;63.40;;;;;;5034415;28;20038;-60
2021/03/07 04:38:00;;;;;;;14.18;9.52;;;0.20;63.30;;;;;;5034508;28;20017;-60
2021/03/07 04:40:26;;;;;;;12.95;7.85;;;0.20;63.20;;;;;;5020496;28;20018;-61
2021/03/07 04:42:52;;;;;;;15.10;9.20;;;0.20;63.20;;;;;;5014338;28;20034;-60
2021/03/07 04:45:19;;;;;;;11.98;8.30;;;0.30;63.10;;;;;;5014330;28;20065;-60
2021/03/07 04:47:45;;;;;;;10.23;7.80;;;0.30;63.10;;;;;;5012929;28;20026;-60
2021/03/07 04:50:15;;;;;;;11.00;7.03;;;0.40;63.00;;;;;;5020655;28;20216;-61
2021/03/07 04:52:41;;;;;;;10.38;7.25;;;0.40;62.90;;;;;;5034090;28;20481;-60
2021/03/07 04:55:08;;;;;;;7.40;6.30;;;0.40;62.80;;;;;;5034264;28;20069;-59
2021/03/07 04:57:34;;;;;;;7.60;6.20;;;0.50;62.60;;;;;;5032541;28;20033;-60
2021/03/07 05:00:01;;;;;;;10.05;7.00;;;0.50;62.70;;;;;;5014091;28;20049;-58
2021/03/07 05:02:26;;;;;;;10.02;7.15;;;0.60;62.70;;;;;;5014286;28;20044;-60
2021/03/07 05:04:52;;;;;;;9.13;5.97;;;0.60;62.70;;;;;;5012886;28;20029;-59
2021/03/07 05:07:18;;;;;;;9.80;7.25;;;0.70;62.60;;;;;;5013916;28;20034;-60
2021/03/07 05:09:44;;;;;;;9.30;7.00;;;0.70;62.80;;;;;;5013987;28;20061;-60
2021/03/07 05:12:10;;;;;;;9.73;7.00;;;0.80;63.00;;;;;;5013865;28;20080;-60
2021/03/07 05:14:35;;;;;;;9.18;6.03;;;0.90;62.90;;;;;;5013879;28;20113;-61
2021/03/07 05:17:01;;;;;;;8.85;6.60;;;1.00;62.80;;;;;;5045914;28;20026;-61
2021/03/07 05:19:27;;;;;;;10.52;6.18;;;1.20;62.50;;;;;;5013748;28;20022;-60
2021/03/07 05:21:53;;;;;;;10.18;8.10;;;1.30;62.40;;;;;;5012583;28;20068;-61
2021/03/07 05:24:18;;;;;;;10.90;7.97;;;1.40;62.20;;;;;;5045533;28;20095;-61
2021/03/07 05:26:45;;;;;;;10.40;7.47;;;1.40;62.60;;;;;;5023201;28;20037;-59
2021/03/07 05:29:11;;;;;;;9.43;6.72;;;1.50;61.70;;;;;;5033505;28;20048;-61
2021/03/07 05:31:37;;;;;;;12.23;7.35;;;1.50;61.60;;;;;;5033372;28;20033;-60
2021/03/07 05:34:03;;;;;;;11.38;7.50;;;1.60;61.70;;;;;;5033406;28;20025;-61
2021/03/07 05:36:29;;;;;;;10.40;7.35;;;1.70;61.40;;;;;;5033354;28;20100;-61
2021/03/07 05:38:54;;;;;;;9.77;6.80;;;1.70;61.20;;;;;;5033385;28;20053;-60
2021/03/07 05:41:20;;;;;;;10.90;8.07;;;1.80;61.10;;;;;;5033592;28;20473;-60
2021/03/07 05:43:48;;;;;;;10.80;6.90;;;1.80;61.00;;;;;;5033316;28;20037;-58
2021/03/07 05:46:15;;;;;;;10.60;6.82;;;1.90;60.90;;;;;;5032026;28;20039;-61
2021/03/07 05:48:41;;;;;;;9.30;6.55;;;1.90;60.70;;;;;;5021112;28;20042;-61
2021/03/07 05:51:13;;;;;;;11.23;6.65;;;1.90;60.70;;;;;;5029699;28;20042;-61
2021/03/07 05:53:46;;;;;;;9.93;7.55;;;2.00;60.80;;;;;;5033242;28;20033;-59
2021/03/07 05:56:12;;;;;;;11.23;7.63;;;2.00;60.80;;;;;;5033291;28;20508;-60
2021/03/07 05:58:39;;;;;;;11.40;7.32;;;2.20;60.90;;;;;;5033079;28;20025;-60
2021/03/07 06:01:05;;;;;;;13.75;8.07;;;2.30;61.00;;;;;;5033190;28;20053;-60
2021/03/07 06:03:31;;;;;;;10.07;7.43;;;2.40;60.50;;;;;;5033386;28;20057;-60
2021/03/07 06:05:57;;;;;;;10.85;7.18;;;2.60;60.70;;;;;;5032871;28;20025;-61
2021/03/07 06:08:23;;;;;;;11.13;7.75;;;2.80;60.50;;;;;;5033067;28;20037;-60
2021/03/07 06:10:49;;;;;;;11.27;7.45;;;3.00;60.00;;;;;;5033130;28;20034;-60
2021/03/07 06:13:14;;;;;;;11.73;7.53;;;3.20;59.70;;;;;;5032999;28;20381;-61
2021/03/07 06:15:43;;;;;;;11.80;7.57;;;3.40;59.20;;;;;;5032940;28;20029;-60
2021/03/07 06:18:19;;;;;;;12.00;7.80;;;3.50;58.70;;;;;;5025581;28;20057;-61
2021/03/07 06:20:48;;;;;;;10.35;7.05;;;3.70;58.40;;;;;;5026484;28;20128;-61
2021/03/07 06:23:13;;;;;;;9.52;7.07;;;3.80;57.80;;;;;;5033651;28;20116;-59
2021/03/07 06:25:52;;;;;;;13.43;7.80;;;3.90;57.80;;;;;;5036699;28;20053;-61
2021/03/07 06:28:26;;;;;;;11.27;7.85;;;4.00;57.20;;;;;;5036720;28;20033;-61
2021/03/07 06:30:53;;;;;;;8.38;6.68;;;4.00;57.20;;;;;;5036494;28;20057;-60
2021/03/07 06:33:37;;;;;;;10.80;6.95;;;4.10;57.00;;;;;;5036648;28;20088;-61
2021/03/07 06:36:18;;;;;;;9.23;6.88;;;4.20;56.70;;;;;;5036834;28;20033;-61
2021/03/07 06:38:46;;;;;;;8.50;6.25;;;4.20;56.50;;;;;;5036727;28;20048;-59
2021/03/07 06:41:24;;;;;;;9.30;6.47;;;4.10;56.40;;;;;;5036423;28;20022;-61
2021/03/07 06:43:51;;;;;;;8.95;6.32;;;4.10;56.00;;;;;;5036364;28;20495;-61
2021/03/07 06:46:34;;;;;;;11.15;6.20;;;4.00;55.90;;;;;;5036330;28;20036;-60
2021/03/07 06:49:00;;;;;;;8.77;6.25;;;3.80;55.60;;;;;;5019529;28;20050;-61
2021/03/07 06:51:33;;;;;;;9.10;6.10;;;3.70;55.80;;;;;;5018500;28;20034;-59
2021/03/07 06:54:12;;;;;;;9.35;5.72;;;3.60;56.20;;;;;;5016338;28;20045;-60
2021/03/07 06:56:44;;;;;;;9.10;5.90;;;3.60;56.20;;;;;;5016377;28;20478;-60
2021/03/07 06:59:12;;;;;;;7.38;5.45;;;3.50;56.00;;;;;;5023680;28;20029;-60
2021/03/07 07:01:40;;;;;;;9.82;6.18;;;3.50;56.20;;;;;;5036003;28;20025;-61
2021/03/07 07:04:06;;;;;;;9.32;5.65;;;3.40;55.90;;;;;;5036304;28;20112;-59
2021/03/07 07:06:33;;;;;;;10.15;5.97;;;3.40;56.00;;;;;;5036057;28;20033;-61
2021/03/07 07:09:00;;;;;;;11.90;6.22;;;3.30;56.20;;;;;;5036147;28;20075;-60
2021/03/07 07:11:27;;;;;;;10.63;6.22;;;3.30;56.50;;;;;;5035879;28;20026;-60
2021/03/07 07:13:52;;;;;;;8.57;5.88;;;3.30;56.40;;;;;;5035846;28;20032;-61
2021/03/07 07:16:19;;;;;;;8.55;6.32;;;3.40;56.60;;;;;;5035729;28;20477;-61
2021/03/07 07:18:46;;;;;;;9.73;6.15;;;3.40;56.40;;;;;;5021494;28;20037;-60
2021/03/07 07:21:14;;;;;;;7.80;6.00;;;3.40;56.50;;;;;;5016215;28;20105;-61
2021/03/07 07:23:40;;;;;;;10.07;6.47;;;3.40;56.40;;;;;;5015873;28;20592;-61
2021/03/07 07:26:06;;;;;;;9.10;6.60;;;3.50;56.50;;;;;;5021774;28;20033;-60
2021/03/07 07:28:33;;;;;;;9.18;7.05;;;3.50;56.50;;;;;;5035527;28;20026;-60
2021/03/07 07:31:28;;;;;;;9.77;6.75;;;3.60;56.40;;;;;;5035562;28;20108;-59
2021/03/07 07:34:00;;;;;;;10.60;7.28;;;3.60;56.10;;;;;;5034384;28;20037;-60
2021/03/07 07:36:32;;;;;;;11.05;7.00;;;3.60;56.10;;;;;;5034700;28;20064;-61
2021/03/07 07:39:00;;;;;;;13.43;8.00;;;3.70;56.30;;;;;;5035373;28;20417;-60
2021/03/07 07:41:29;;;;;;;13.65;8.15;;;3.70;56.20;;;;;;5035278;28;20021;-60
2021/03/07 07:43:55;;;;;;;11.73;7.57;;;3.70;56.30;;;;;;5035193;28;20469;-60
2021/03/07 07:46:21;;;;;;;11.35;7.63;;;3.80;56.30;;;;;;5035206;28;20017;-61
2021/03/07 07:48:47;;;;;;;10.18;7.13;;;3.80;56.30;;;;;;5020514;28;20136;-61
2021/03/07 07:51:38;;;;;;;11.30;7.40;;;3.80;56.30;;;;;;5027621;28;20100;-59
2021/03/07 07:54:06;;;;;;;13.10;6.75;;;3.90;56.20;;;;;;5035359;28;20029;-61
2021/03/07 07:56:33;;;;;;;11.05;6.90;;;3.90;56.30;;;;;;5034878;28;20040;-60
2021/03/07 07:58:59;;;;;;;12.45;8.20;;;3.90;56.30;;;;;;5033836;28;20032;-60
2021/03/07 08:01:55;;;;;;;12.05;7.93;;;4.00;56.50;;;;;;5034798;28;20049;-60
2021/03/07 08:04:27;;;;;;;10.38;7.70;;;4.10;56.40;;;;;;5015670;28;20104;-60
2021/03/07 08:06:57;;;;;;;11.30;7.85;;;4.10;56.20;;;;;;5031469;28;20029;-60
2021/03/07 08:09:38;;;;;;;11.65;8.73;;;4.10;56.30;;;;;;5034777;28;20124;-60
2021/03/07 08:12:41;;;;;;;12.70;8.43;;;4.10;56.20;;;;;;5034700;28;20022;-60
2021/03/07 08:15:27;;;;;;;11.15;7.40;;;4.10;56.30;;;;;;5034912;28;20025;-60
2021/03/07 08:17:57;;;;;;;11.75;8.00;;;4.20;56.30;;;;;;5033831;28;20045;-60
2021/03/07 08:20:38;;;;;;;12.43;7.90;;;4.30;56.40;;;;;;5034536;28;20030;-60
2021/03/07 08:23:12;;;;;;;12.68;8.45;;;4.40;56.30;;;;;;5034875;28;20480;-60
2021/03/07 08:25:50;;;;;;;9.75;7.57;;;4.40;56.20;;;;;;5034451;28;20021;-60
2021/03/07 08:28:31;;;;;;;11.88;7.90;;;4.50;56.10;;;;;;5034361;28;20105;-60
2021/03/07 08:31:01;;;;;;;10.15;7.35;;;4.50;56.00;;;;;;5034318;28;20036;-59
2021/03/07 08:33:35;;;;;;;13.13;8.63;;;4.50;56.10;;;;;;5034640;28;20114;-59
2021/03/07 08:36:21;;;;;;;11.55;8.77;;;4.60;56.10;;;;;;5034480;28;20025;-60
2021/03/07 08:38:50;;;;;;;11.38;7.85;;;4.70;55.80;;;;;;5034266;28;20022;-59
2021/03/07 08:41:26;;;;;;;10.93;8.30;;;4.80;55.90;;;;;;5034167;28;20107;-60
2021/03/07 08:43:57;;;;;;;15.35;8.68;;;4.90;55.50;;;;;;5034197;28;20039;-60
2021/03/07 08:46:27;;;;;;;11.57;8.07;;;5.00;55.20;;;;;;5024968;28;20041;-60
2021/03/07 08:49:06;;;;;;;11.82;7.35;;;5.00;55.00;;;;;;5020823;28;20049;-60
2021/03/07 08:51:33;;;;;;;10.82;7.60;;;5.10;54.90;;;;;;5034359;28;20059;-60
2021/03/07 08:54:29;;;;;;;14.85;8.90;;;5.20;54.90;;;;;;5034735;28;20026;-60
2021/03/07 08:56:55;;;;;;;10.02;7.45;;;5.20;54.70;;;;;;5030668;28;20042;-60
2021/03/07 08:59:26;;;;;;;9.95;7.50;;;5.20;54.80;;;;;;5032179;28;20515;-60
2021/03/07 09:01:52;;;;;;;13.63;7.78;;;5.30;54.70;;;;;;5033353;28;20032;-60
2021/03/07 09:04:18;;;;;;;12.55;9.00;;;5.30;54.50;;;;;;5033474;28;20061;-59
2021/03/07 09:06:45;;;;;;;12.10;7.72;;;5.30;54.60;;;;;;5033161;28;20049;-60
2021/03/07 09:09:13;;;;;;;11.10;8.00;;;5.30;54.70;;;;;;5033269;28;20033;-60
2021/03/07 09:11:54;;;;;;;13.00;8.05;;;5.30;54.60;;;;;;5032748;28;20029;-60
2021/03/07 09:14:48;;;;;;;12.45;8.05;;;5.20;54.40;;;;;;5033735;28;20381;-60
2021/03/07 09:17:22;;;;;;;12.85;9.43;;;5.20;54.50;;;;;;5017675;28;20065;-60
2021/03/07 09:19:48;;;;;;;11.02;7.88;;;5.20;54.60;;;;;;5033831;28;20026;-60
2021/03/07 09:22:15;;;;;;;11.68;8.02;;;5.20;54.60;;;;;;5033522;28;20473;-58
2021/03/07 09:24:51;;;;;;;13.93;8.35;;;5.10;54.50;;;;;;5033455;28;20068;-59
2021/03/07 09:27:17;;;;;;;12.00;8.00;;;5.20;54.60;;;;;;5033461;28;20074;-60
2021/03/07 09:29:56;;;;;;;11.55;8.30;;;5.10;54.70;;;;;;5033764;28;20469;-60
2021/03/07 09:32:30;;;;;;;11.65;8.35;;;5.10;54.70;;;;;;5033354;28;20029;-60
2021/03/07 09:34:58;;;;;;;13.18;8.18;;;5.10;54.70;;;;;;5033473;28;20041;-59
2021/03/07 09:37:26;;;;;;;11.60;8.15;;;5.10;54.80;;;;;;5033286;28;20018;-58
2021/03/07 09:39:52;;;;;;;12.40;8.43;;;5.10;54.80;;;;;;5033416;28;20033;-60
2021/03/07 09:42:19;;;;;;;11.88;8.38;;;5.10;54.90;;;;;;5033345;28;20032;-59
2021/03/07 09:44:46;;;;;;;14.77;9.60;;;5.20;55.10;;;;;;5033293;28;20030;-58
2021/03/07 09:47:14;;;;;;;10.32;8.10;;;5.30;55.10;;;;;;5015443;28;20033;-60
2021/03/07 09:49:41;;;;;;;12.13;9.18;;;5.40;55.10;;;;;;5013324;28;20054;-60
2021/03/07 09:52:08;;;;;;;11.38;8.05;;;5.50;55.20;;;;;;5033069;28;20029;-60
2021/03/07 09:54:34;;;;;;;14.23;8.73;;;5.50;55.10;;;;;;5023743;28;20045;-60
2021/03/07 09:57:00;;;;;;;11.13;8.98;;;5.60;55.10;;;;;;5013595;28;20026;-60
2021/03/07 09:59:34;;;;;;;10.75;8.75;;;5.70;54.90;;;;;;5016338;28;20033;-60
2021/03/07 10:02:05;;;;;;;13.00;9.50;;;5.70;54.50;;;;;;5017392;28;20018;-60
2021/03/07 10:04:36;;;;;;;12.90;7.72;;;5.80;54.40;;;;;;5017377;28;20053;-60
2021/03/07 10:07:12;;;;;;;12.32;8.45;;;5.80;54.30;;;;;;5017211;28;20061;-60
2021/03/07 10:10:17;;;;;;;16.88;8.60;;;5.90;54.40;;;;;;5017267;28;20042;-60
2021/03/07 10:12:55;;;;;;;14.50;7.95;;;6.00;54.40;;;;;;5015068;28;20576;-60
2021/03/07 10:15:35;;;;;;;10.48;7.07;;;6.00;54.30;;;;;;5015485;28;20053;-60
2021/03/07 10:18:03;;;;;;;13.35;7.93;;;6.10;54.00;;;;;;5016309;28;20113;-60
2021/03/07 10:20:34;;;;;;;13.93;8.90;;;6.10;53.90;;;;;;5017069;28;20053;-60
2021/03/07 10:23:00;;;;;;;12.13;8.25;;;6.20;53.80;;;;;;5017081;28;20041;-59
2021/03/07 10:25:27;;;;;;;12.32;7.90;;;6.30;53.90;;;;;;5016940;28;20038;-60
2021/03/07 10:28:00;;;;;;;9.82;7.85;;;6.30;53.60;;;;;;5016903;28;20381;-60
2021/03/07 10:30:35;;;;;;;11.90;7.50;;;6.40;53.40;;;;;;5017383;28;20355;-59
2021/03/07 10:33:10;;;;;;;11.43;7.57;;;6.50;53.30;;;;;;5017421;28;20087;-59
2021/03/07 10:35:37;;;;;;;9.70;7.50;;;6.50;53.30;;;;;;5015436;28;20069;-60
2021/03/07 10:38:03;;;;;;;10.65;7.85;;;6.60;53.30;;;;;;5016749;28;20022;-60
2021/03/07 10:40:34;;;;;;;8.40;6.95;;;6.70;53.20;;;;;;5016683;28;20032;-59
2021/03/07 10:43:04;;;;;;;11.07;8.55;;;6.80;53.10;;;;;;5016663;28;20411;-59
2021/03/07 10:45:30;;;;;;;10.02;7.65;;;6.90;52.90;;;;;;5016877;28;20018;-59
2021/03/07 10:48:02;;;;;;;12.25;8.00;;;6.90;52.60;;;;;;5026596;28;20025;-59
2021/03/07 10:50:28;;;;;;;;;;;7.00;52.60;;;;;;5036445;28;20489;-59
2021/03/07 10:52:54;;;;;;;16.23;7.15;;;6.90;52.00;;;;;;5036260;28;19951;-60
2021/03/07 10:55:20;;;;;;;10.50;6.43;;;6.90;52.10;;;;;;5036382;28;20519;-60
2021/03/07 10:57:46;;;;;;;28.83;8.65;;;6.80;52.10;;;;;;5036079;28;20021;-59
2021/03/07 11:00:12;;;;;;;14.82;8.90;;;6.70;51.70;;;;;;5034991;28;20556;-60
2021/03/07 11:02:38;;;;;;;9.02;6.03;;;6.60;52.00;;;;;;5036058;28;20022;-61
2021/03/07 11:05:05;;;;;;;8.48;7.30;;;6.60;52.20;;;;;;5036100;28;20376;-60
2021/03/07 11:07:30;;;;;;;8.07;6.75;;;6.60;52.10;;;;;;5036185;28;20079;-60
2021/03/07 11:09:56;;;;;;;9.52;6.95;;;6.50;51.90;;;;;;5035843;28;20481;-61
2021/03/07 11:12:22;;;;;;;16.77;7.43;;;6.40;52.30;;;;;;5035722;28;20041;-61
2021/03/07 11:14:48;;;;;;;8.98;6.32;;;6.40;52.50;;;;;;5035742;28;20070;-60
2021/03/07 11:17:13;;;;;;;9.73;6.78;;;6.40;52.60;;;;;;5035552;28;20029;-60
2021/03/07 11:19:39;;;;;;;12.52;7.13;;;6.50;52.50;;;;;;5035705;28;20057;-60
2021/03/07 11:22:05;;;;;;;11.10;7.15;;;6.60;52.10;;;;;;5035783;28;20029;-60
2021/03/07 11:24:31;;;;;;;7.32;6.07;;;6.60;51.80;;;;;;5035664;28;20100;-60
2021/03/07 11:26:56;;;;;;;11.05;6.53;;;6.60;52.00;;;;;;5035634;28;20554;-60
2021/03/07 11:29:22;;;;;;;11.63;6.72;;;6.50;52.10;;;;;;5035912;28;20052;-59
2021/03/07 11:31:48;;;;;;;10.52;6.43;;;6.50;52.30;;;;;;5035503;28;20029;-60
2021/03/07 11:34:14;;;;;;;9.40;6.80;;;6.60;52.30;;;;;;5035461;28;20483;-61
2021/03/07 11:36:39;;;;;;;10.88;6.70;;;6.50;51.90;;;;;;5035357;28;20052;-60
2021/03/07 11:39:06;;;;;;;14.10;7.57;;;6.50;51.90;;;;;;5035323;28;20084;-60
2021/03/07 11:41:31;;;;;;;18.08;7.70;;;6.40;51.90;;;;;;5035393;28;20037;-59
2021/03/07 11:43:57;;;;;;;12.98;8.13;;;6.30;52.10;;;;;;5035276;28;20551;-60
2021/03/07 11:46:23;;;;;;;12.00;8.43;;;6.20;52.10;;;;;;5019614;28;20065;-60
2021/03/07 11:48:49;;;;;;;10.85;7.20;;;6.20;52.40;;;;;;5031310;28;20049;-60
2021/03/07 11:51:14;;;;;;;9.23;7.18;;;6.20;52.40;;;;;;5035173;28;20021;-60
2021/03/07 11:53:40;;;;;;;8.02;6.68;;;6.20;52.60;;;;;;5035100;28;20025;-59
2021/03/07 11:56:06;;;;;;;8.75;7.03;;;6.20;52.70;;;;;;5035280;28;20057;-60
2021/03/07 11:58:31;;;;;;;13.60;7.40;;;6.30;52.70;;;;;;5035044;28;20029;-60
2021/03/07 12:00:57;;;;;;;10.90;7.88;;;6.30;52.80;;;;;;5034984;28;20022;-59
2021/03/07 12:03:23;;;;;;;8.60;6.70;;;6.50;52.90;;;;;;5035026;28;20056;-60
2021/03/07 12:05:49;;;;;;;9.15;5.88;;;6.50;52.60;;;;;;5034770;28;20051;-60
2021/03/07 12:08:14;;;;;;;7.85;6.53;;;6.60;52.60;;;;;;5034836;28;20029;-61
2021/03/07 12:10:40;;;;;;;10.05;7.13;;;6.70;52.40;;;;;;5034851;28;20147;-61
2021/03/07 12:13:06;;;;;;;8.27;7.20;;;6.80;52.30;;;;;;5034752;28;20021;-60
2021/03/07 12:15:31;;;;;;;10.82;6.97;;;6.80;52.20;;;;;;5026628;28;20038;-60
2021/03/07 12:17:57;;;;;;;13.48;7.32;;;6.80;52.10;;;;;;5027193;28;20034;-60
2021/03/07 12:20:23;;;;;;;9.52;6.18;;;6.90;52.10;;;;;;5034452;28;20021;-61
2021/03/07 12:22:50;;;;;;;9.63;7.13;;;6.80;52.00;;;;;;5034261;28;20028;-60
2021/03/07 12:25:16;;;;;;;8.50;6.43;;;6.90;52.10;;;;;;5034489;28;20377;-61
2021/03/07 12:27:42;;;;;;;9.98;6.15;;;6.90;52.10;;;;;;5034445;28;20029;-60
2021/03/07 12:30:09;;;;;;;9.32;6.22;;;6.90;51.90;;;;;;5034464;28;20025;-60
2021/03/07 12:32:35;;;;;;;8.68;7.10;;;6.90;51.80;;;;;;5034519;28;20029;-60
2021/03/07 12:35:02;;;;;;;9.13;5.80;;;6.90;51.90;;;;;;5034453;28;20049;-61
2021/03/07 12:37:27;;;;;;;8.68;6.50;;;7.00;52.00;;;;;;5034180;28;20029;-59
2021/03/07 12:39:53;;;;;;;9.23;6.22;;;7.00;52.00;;;;;;5034263;28;20389;-60
2021/03/07 12:42:19;;;;;;;6.82;6.00;;;7.00;51.70;;;;;;5034138;28;20385;-60
2021/03/07 12:44:45;;;;;;;9.73;6.20;;;7.10;51.80;;;;;;5031377;28;20022;-61
2021/03/07 12:47:10;;;;;;;8.13;6.43;;;7.00;51.70;;;;;;5028321;28;20030;-61
2021/03/07 12:49:36;;;;;;;9.18;6.15;;;7.00;51.60;;;;;;5033818;28;20094;-60
2021/03/07 12:52:02;;;;;;;7.63;6.03;;;7.00;51.70;;;;;;5034001;28;20021;-60
2021/03/07 12:54:28;;;;;;;8.60;6.18;;;7.00;51.70;;;;;;5034069;28;20033;-60
2021/03/07 12:56:53;;;;;;;6.55;5.70;;;7.00;51.70;;;;;;5033884;28;20029;-59
2021/03/07 12:59:19;;;;;;;12.02;6.03;;;7.00;51.60;;;;;;5033954;28;20026;-59
2021/03/07 13:01:45;;;;;;;8.90;6.78;;;6.90;51.40;;;;;;5033906;28;20021;-60